sensor_id;sensor_type;location;lat;lon;timestamp;P1;durP1;ratioP1;P2;durP2;ratioP2
40449;SDS011;41787;53.570;10.032;2023-04-06T00:00:03;6.65;;;3.92;;
40449;SDS011;41787;53.570;10.032;2023-04-06T00:02:30;8.95;;;4.28;;
40449;SDS011;41787;53.570;10.032;2023-04-06T00:04:55;7.70;;;4.40;;
40449;SDS011;41787;53.570;10.032;2023-04-06T00:07:21;8.05;;;4.38;;
40449;SDS011;41787;53.570;10.032;2023-04-06T00:09:47;8.40;;;4.43;;
40449;SDS011;41787;53.570;10.032;2023-04-06T00:12:13;7.88;;;4.40;;
40449;SDS011;41787;53.570;10.032;2023-04-06T00:14:40;14.38;;;4.63;;
40449;SDS011;41787;53.570;10.032;2023-04-06T00:17:06;10.25;;;4.45;;
40449;SDS011;41787;53.570;10.032;2023-04-06T00:19:31;9.63;;;4.30;;
40449;SDS011;41787;53.570;10.032;2023-04-06T00:21:57;10.70;;;4.53;;
40449;SDS011;41787;53.570;10.032;2023-04-06T00:24:24;10.52;;;4.53;;
40449;SDS011;41787;53.570;10.032;2023-04-06T00:26:50;9.20;;;4.75;;
40449;SDS011;41787;53.570;10.032;2023-04-06T00:29:16;10.50;;;4.85;;
40449;SDS011;41787;53.570;10.032;2023-04-06T00:31:42;10.07;;;4.00;;
40449;SDS011;41787;53.570;10.032;2023-04-06T00:34:09;6.88;;;4.45;;
40449;SDS011;41787;53.570;10.032;2023-04-06T00:36:35;9.55;;;4.53;;
40449;SDS011;41787;53.570;10.032;2023-04-06T00:39:01;8.35;;;4.53;;
40449;SDS011;41787;53.570;10.032;2023-04-06T00:41:27;12.38;;;4.85;;
40449;SDS011;41787;53.570;10.032;2023-04-06T00:43:53;9.63;;;5.10;;
40449;SDS011;41787;53.570;10.032;2023-04-06T00:46:19;9.02;;;4.35;;
40449;SDS011;41787;53.570;10.032;2023-04-06T00:48:45;8.73;;;4.10;;
40449;SDS011;41787;53.570;10.032;2023-04-06T00:51:11;11.07;;;4.63;;
40449;SDS011;41787;53.570;10.032;2023-04-06T00:53:37;7.55;;;4.50;;
40449;SDS011;41787;53.570;10.032;2023-04-06T00:56:03;8.00;;;4.07;;
40449;SDS011;41787;53.570;10.032;2023-04-06T00:58:29;10.27;;;4.40;;
40449;SDS011;41787;53.570;10.032;2023-04-06T01:00:55;11.65;;;6.28;;
40449;SDS011;41787;53.570;10.032;2023-04-06T01:03:22;10.23;;;4.57;;
40449;SDS011;41787;53.570;10.032;2023-04-06T01:05:48;6.78;;;4.25;;
40449;SDS011;41787;53.570;10.032;2023-04-06T01:08:14;11.55;;;4.25;;
40449;SDS011;41787;53.570;10.032;2023-04-06T01:10:40;7.43;;;3.85;;
40449;SDS011;41787;53.570;10.032;2023-04-06T01:13:06;10.15;;;5.00;;
40449;SDS011;41787;53.570;10.032;2023-04-06T01:15:33;7.90;;;4.53;;
40449;SDS011;41787;53.570;10.032;2023-04-06T01:18:00;10.98;;;4.72;;
40449;SDS011;41787;53.570;10.032;2023-04-06T01:20:25;7.80;;;4.55;;
40449;SDS011;41787;53.570;10.032;2023-04-06T01:22:53;6.13;;;4.32;;
40449;SDS011;41787;53.570;10.032;2023-04-06T01:25:20;9.65;;;4.82;;
40449;SDS011;41787;53.570;10.032;2023-04-06T01:27:46;6.90;;;3.85;;
40449;SDS011;41787;53.570;10.032;2023-04-06T01:30:12;9.43;;;5.25;;
40449;SDS011;41787;53.570;10.032;2023-04-06T01:32:38;7.88;;;4.90;;
40449;SDS011;41787;53.570;10.032;2023-04-06T01:35:04;7.72;;;4.22;;
40449;SDS011;41787;53.570;10.032;2023-04-06T01:37:30;9.32;;;4.22;;
40449;SDS011;41787;53.570;10.032;2023-04-06T01:39:57;7.22;;;4.32;;
40449;SDS011;41787;53.570;10.032;2023-04-06T01:42:23;8.25;;;4.60;;
40449;SDS011;41787;53.570;10.032;2023-04-06T01:44:49;7.30;;;4.95;;
40449;SDS011;41787;53.570;10.032;2023-04-06T01:47:15;6.00;;;4.03;;
40449;SDS011;41787;53.570;10.032;2023-04-06T01:49:41;9.85;;;4.75;;
40449;SDS011;41787;53.570;10.032;2023-04-06T01:52:07;7.82;;;5.13;;
40449;SDS011;41787;53.570;10.032;2023-04-06T01:54:33;7.70;;;4.20;;
40449;SDS011;41787;53.570;10.032;2023-04-06T01:56:59;6.20;;;4.28;;
40449;SDS011;41787;53.570;10.032;2023-04-06T01:59:25;7.78;;;4.65;;
40449;SDS011;41787;53.570;10.032;2023-04-06T02:01:51;9.13;;;4.72;;
40449;SDS011;41787;53.570;10.032;2023-04-06T02:04:17;7.50;;;4.57;;
40449;SDS011;41787;53.570;10.032;2023-04-06T02:06:43;9.35;;;4.90;;
40449;SDS011;41787;53.570;10.032;2023-04-06T02:09:09;6.32;;;4.28;;
40449;SDS011;41787;53.570;10.032;2023-04-06T02:11:35;14.65;;;4.75;;
40449;SDS011;41787;53.570;10.032;2023-04-06T02:14:01;7.78;;;4.03;;
40449;SDS011;41787;53.570;10.032;2023-04-06T02:16:27;9.00;;;4.65;;
40449;SDS011;41787;53.570;10.032;2023-04-06T02:18:53;8.98;;;4.47;;
40449;SDS011;41787;53.570;10.032;2023-04-06T02:21:19;12.50;;;4.60;;
40449;SDS011;41787;53.570;10.032;2023-04-06T02:23:45;9.57;;;4.53;;
40449;SDS011;41787;53.570;10.032;2023-04-06T02:26:12;7.80;;;4.97;;
40449;SDS011;41787;53.570;10.032;2023-04-06T02:28:37;10.43;;;4.55;;
40449;SDS011;41787;53.570;10.032;2023-04-06T02:31:03;9.73;;;4.45;;
40449;SDS011;41787;53.570;10.032;2023-04-06T02:33:29;6.82;;;4.57;;
40449;SDS011;41787;53.570;10.032;2023-04-06T02:35:55;8.75;;;4.75;;
40449;SDS011;41787;53.570;10.032;2023-04-06T02:38:21;9.82;;;4.85;;
40449;SDS011;41787;53.570;10.032;2023-04-06T02:40:47;6.95;;;4.72;;
40449;SDS011;41787;53.570;10.032;2023-04-06T02:43:13;8.55;;;5.03;;
40449;SDS011;41787;53.570;10.032;2023-04-06T02:45:41;12.98;;;5.47;;
40449;SDS011;41787;53.570;10.032;2023-04-06T02:48:07;6.78;;;4.45;;
40449;SDS011;41787;53.570;10.032;2023-04-06T02:50:33;9.88;;;5.32;;
40449;SDS011;41787;53.570;10.032;2023-04-06T02:52:59;10.50;;;5.55;;
40449;SDS011;41787;53.570;10.032;2023-04-06T02:55:25;10.60;;;5.38;;
40449;SDS011;41787;53.570;10.032;2023-04-06T02:57:53;7.90;;;5.05;;
40449;SDS011;41787;53.570;10.032;2023-04-06T03:00:19;14.02;;;4.75;;
40449;SDS011;41787;53.570;10.032;2023-04-06T03:02:45;10.30;;;5.57;;
40449;SDS011;41787;53.570;10.032;2023-04-06T03:05:11;10.85;;;4.93;;
40449;SDS011;41787;53.570;10.032;2023-04-06T03:07:37;9.85;;;5.30;;
40449;SDS011;41787;53.570;10.032;2023-04-06T03:10:03;15.45;;;5.57;;
40449;SDS011;41787;53.570;10.032;2023-04-06T03:12:29;9.88;;;5.57;;
40449;SDS011;41787;53.570;10.032;2023-04-06T03:14:55;10.52;;;5.75;;
40449;SDS011;41787;53.570;10.032;2023-04-06T03:17:21;9.48;;;6.13;;
40449;SDS011;41787;53.570;10.032;2023-04-06T03:19:47;12.75;;;5.68;;
40449;SDS011;41787;53.570;10.032;2023-04-06T03:22:13;11.02;;;5.47;;
40449;SDS011;41787;53.570;10.032;2023-04-06T03:24:39;8.82;;;5.43;;
40449;SDS011;41787;53.570;10.032;2023-04-06T03:27:05;7.68;;;5.30;;
40449;SDS011;41787;53.570;10.032;2023-04-06T03:29:31;12.02;;;5.90;;
40449;SDS011;41787;53.570;10.032;2023-04-06T03:31:57;13.15;;;5.82;;
40449;SDS011;41787;53.570;10.032;2023-04-06T03:34:23;7.10;;;4.95;;
40449;SDS011;41787;53.570;10.032;2023-04-06T03:36:49;10.18;;;5.20;;
40449;SDS011;41787;53.570;10.032;2023-04-06T03:39:15;9.07;;;5.22;;
40449;SDS011;41787;53.570;10.032;2023-04-06T03:41:41;12.32;;;5.28;;
40449;SDS011;41787;53.570;10.032;2023-04-06T03:44:08;9.90;;;5.18;;
40449;SDS011;41787;53.570;10.032;2023-04-06T03:46:34;9.85;;;5.55;;
40449;SDS011;41787;53.570;10.032;2023-04-06T03:49:00;8.82;;;5.50;;
40449;SDS011;41787;53.570;10.032;2023-04-06T03:51:26;10.02;;;5.75;;
40449;SDS011;41787;53.570;10.032;2023-04-06T03:53:52;9.15;;;5.63;;
40449;SDS011;41787;53.570;10.032;2023-04-06T03:56:18;12.85;;;6.25;;
40449;SDS011;41787;53.570;10.032;2023-04-06T03:58:45;8.82;;;5.82;;
40449;SDS011;41787;53.570;10.032;2023-04-06T04:01:14;13.43;;;6.57;;
40449;SDS011;41787;53.570;10.032;2023-04-06T04:03:40;9.73;;;5.80;;
40449;SDS011;41787;53.570;10.032;2023-04-06T04:06:06;9.82;;;5.15;;
40449;SDS011;41787;53.570;10.032;2023-04-06T04:08:32;9.68;;;5.95;;
40449;SDS011;41787;53.570;10.032;2023-04-06T04:10:58;10.75;;;6.32;;
40449;SDS011;41787;53.570;10.032;2023-04-06T04:13:24;9.10;;;6.07;;
40449;SDS011;41787;53.570;10.032;2023-04-06T04:15:50;10.32;;;5.50;;
40449;SDS011;41787;53.570;10.032;2023-04-06T04:18:16;8.73;;;5.45;;
40449;SDS011;41787;53.570;10.032;2023-04-06T04:20:42;13.18;;;5.97;;
40449;SDS011;41787;53.570;10.032;2023-04-06T04:23:08;8.20;;;5.90;;
40449;SDS011;41787;53.570;10.032;2023-04-06T04:25:34;10.45;;;6.72;;
40449;SDS011;41787;53.570;10.032;2023-04-06T04:28:00;10.95;;;6.65;;
40449;SDS011;41787;53.570;10.032;2023-04-06T04:30:26;11.07;;;6.05;;
40449;SDS011;41787;53.570;10.032;2023-04-06T04:32:52;9.85;;;6.68;;
40449;SDS011;41787;53.570;10.032;2023-04-06T04:35:17;9.98;;;6.00;;
40449;SDS011;41787;53.570;10.032;2023-04-06T04:37:43;11.73;;;5.70;;
40449;SDS011;41787;53.570;10.032;2023-04-06T04:40:10;12.02;;;6.03;;
40449;SDS011;41787;53.570;10.032;2023-04-06T04:42:36;9.85;;;6.18;;
40449;SDS011;41787;53.570;10.032;2023-04-06T04:45:02;13.95;;;5.78;;
40449;SDS011;41787;53.570;10.032;2023-04-06T04:47:28;9.50;;;5.75;;
40449;SDS011;41787;53.570;10.032;2023-04-06T04:49:54;11.75;;;6.28;;
40449;SDS011;41787;53.570;10.032;2023-04-06T04:52:20;9.60;;;6.65;;
40449;SDS011;41787;53.570;10.032;2023-04-06T04:54:46;11.07;;;6.07;;
40449;SDS011;41787;53.570;10.032;2023-04-06T04:57:12;13.57;;;6.60;;
40449;SDS011;41787;53.570;10.032;2023-04-06T04:59:38;9.45;;;6.13;;
40449;SDS011;41787;53.570;10.032;2023-04-06T05:02:04;12.15;;;6.85;;
40449;SDS011;41787;53.570;10.032;2023-04-06T05:04:30;10.18;;;6.13;;
40449;SDS011;41787;53.570;10.032;2023-04-06T05:07:06;18.77;;;6.55;;
40449;SDS011;41787;53.570;10.032;2023-04-06T05:09:32;12.88;;;6.13;;
40449;SDS011;41787;53.570;10.032;2023-04-06T05:11:58;13.85;;;5.93;;
40449;SDS011;41787;53.570;10.032;2023-04-06T05:14:25;9.98;;;5.97;;
40449;SDS011;41787;53.570;10.032;2023-04-06T05:16:51;10.32;;;5.70;;
40449;SDS011;41787;53.570;10.032;2023-04-06T05:19:17;11.40;;;6.28;;
40449;SDS011;41787;53.570;10.032;2023-04-06T05:21:43;10.50;;;5.50;;
40449;SDS011;41787;53.570;10.032;2023-04-06T05:24:09;11.63;;;5.90;;
40449;SDS011;41787;53.570;10.032;2023-04-06T05:26:35;11.77;;;6.50;;
40449;SDS011;41787;53.570;10.032;2023-04-06T05:29:01;11.20;;;6.20;;
40449;SDS011;41787;53.570;10.032;2023-04-06T05:31:27;11.68;;;6.75;;
40449;SDS011;41787;53.570;10.032;2023-04-06T05:33:53;9.45;;;6.40;;
40449;SDS011;41787;53.570;10.032;2023-04-06T05:36:19;13.32;;;6.20;;
40449;SDS011;41787;53.570;10.032;2023-04-06T05:38:45;13.70;;;6.18;;
40449;SDS011;41787;53.570;10.032;2023-04-06T05:41:11;12.70;;;6.60;;
40449;SDS011;41787;53.570;10.032;2023-04-06T05:43:37;12.73;;;6.18;;
40449;SDS011;41787;53.570;10.032;2023-04-06T05:46:03;11.93;;;6.32;;
40449;SDS011;41787;53.570;10.032;2023-04-06T05:48:29;9.43;;;6.03;;
40449;SDS011;41787;53.570;10.032;2023-04-06T05:50:55;17.45;;;6.38;;
40449;SDS011;41787;53.570;10.032;2023-04-06T05:53:21;9.88;;;6.50;;
40449;SDS011;41787;53.570;10.032;2023-04-06T05:55:47;11.30;;;6.88;;
40449;SDS011;41787;53.570;10.032;2023-04-06T05:58:13;16.50;;;5.65;;
40449;SDS011;41787;53.570;10.032;2023-04-06T06:00:39;11.93;;;6.07;;
40449;SDS011;41787;53.570;10.032;2023-04-06T06:03:07;13.38;;;6.70;;
40449;SDS011;41787;53.570;10.032;2023-04-06T06:05:33;13.57;;;6.90;;
40449;SDS011;41787;53.570;10.032;2023-04-06T06:07:59;14.73;;;6.38;;
40449;SDS011;41787;53.570;10.032;2023-04-06T06:10:27;12.93;;;6.65;;
40449;SDS011;41787;53.570;10.032;2023-04-06T06:12:53;10.93;;;6.70;;
40449;SDS011;41787;53.570;10.032;2023-04-06T06:15:19;11.15;;;6.68;;
40449;SDS011;41787;53.570;10.032;2023-04-06T06:17:45;15.70;;;7.15;;
40449;SDS011;41787;53.570;10.032;2023-04-06T06:20:11;13.45;;;6.53;;
40449;SDS011;41787;53.570;10.032;2023-04-06T06:22:43;17.08;;;6.35;;
40449;SDS011;41787;53.570;10.032;2023-04-06T06:25:11;13.57;;;6.55;;
40449;SDS011;41787;53.570;10.032;2023-04-06T06:27:37;11.32;;;7.28;;
40449;SDS011;41787;53.570;10.032;2023-04-06T06:30:03;15.20;;;8.00;;
40449;SDS011;41787;53.570;10.032;2023-04-06T06:32:29;10.57;;;7.13;;
40449;SDS011;41787;53.570;10.032;2023-04-06T06:34:55;17.70;;;7.55;;
40449;SDS011;41787;53.570;10.032;2023-04-06T06:37:21;12.88;;;7.30;;
40449;SDS011;41787;53.570;10.032;2023-04-06T06:39:47;9.95;;;7.20;;
40449;SDS011;41787;53.570;10.032;2023-04-06T06:42:16;13.63;;;7.57;;
40449;SDS011;41787;53.570;10.032;2023-04-06T06:44:42;13.25;;;6.80;;
40449;SDS011;41787;53.570;10.032;2023-04-06T06:47:08;15.02;;;7.80;;
40449;SDS011;41787;53.570;10.032;2023-04-06T06:49:34;11.43;;;7.38;;
40449;SDS011;41787;53.570;10.032;2023-04-06T06:52:00;12.55;;;7.10;;
40449;SDS011;41787;53.570;10.032;2023-04-06T06:54:28;15.20;;;6.43;;
40449;SDS011;41787;53.570;10.032;2023-04-06T06:56:54;12.07;;;7.10;;
40449;SDS011;41787;53.570;10.032;2023-04-06T06:59:20;11.25;;;6.22;;
40449;SDS011;41787;53.570;10.032;2023-04-06T07:01:46;13.20;;;6.50;;
40449;SDS011;41787;53.570;10.032;2023-04-06T07:04:12;13.45;;;6.70;;
40449;SDS011;41787;53.570;10.032;2023-04-06T07:06:38;13.32;;;6.20;;
40449;SDS011;41787;53.570;10.032;2023-04-06T07:09:04;9.85;;;6.35;;
40449;SDS011;41787;53.570;10.032;2023-04-06T07:11:30;13.27;;;5.80;;
40449;SDS011;41787;53.570;10.032;2023-04-06T07:13:56;11.07;;;5.53;;
40449;SDS011;41787;53.570;10.032;2023-04-06T07:16:22;9.65;;;5.78;;
40449;SDS011;41787;53.570;10.032;2023-04-06T07:18:48;11.43;;;6.28;;
40449;SDS011;41787;53.570;10.032;2023-04-06T07:21:14;8.57;;;5.53;;
40449;SDS011;41787;53.570;10.032;2023-04-06T07:23:40;9.13;;;5.40;;
40449;SDS011;41787;53.570;10.032;2023-04-06T07:26:06;9.52;;;5.80;;
40449;SDS011;41787;53.570;10.032;2023-04-06T07:28:33;11.05;;;6.25;;
40449;SDS011;41787;53.570;10.032;2023-04-06T07:30:59;12.82;;;6.78;;
40449;SDS011;41787;53.570;10.032;2023-04-06T07:33:25;9.90;;;5.38;;
40449;SDS011;41787;53.570;10.032;2023-04-06T07:35:54;9.57;;;5.97;;
40449;SDS011;41787;53.570;10.032;2023-04-06T07:38:20;16.08;;;6.15;;
40449;SDS011;41787;53.570;10.032;2023-04-06T07:43:53;11.43;;;6.10;;
40449;SDS011;41787;53.570;10.032;2023-04-06T07:46:26;7.22;;;5.00;;
40449;SDS011;41787;53.570;10.032;2023-04-06T07:48:52;18.38;;;5.60;;
40449;SDS011;41787;53.570;10.032;2023-04-06T07:51:18;8.85;;;4.95;;
40449;SDS011;41787;53.570;10.032;2023-04-06T07:53:44;19.77;;;5.43;;
40449;SDS011;41787;53.570;10.032;2023-04-06T07:56:10;10.82;;;4.80;;
40449;SDS011;41787;53.570;10.032;2023-04-06T07:58:40;8.93;;;4.97;;
40449;SDS011;41787;53.570;10.032;2023-04-06T08:01:06;8.90;;;4.70;;
40449;SDS011;41787;53.570;10.032;2023-04-06T08:03:35;9.70;;;4.00;;
40449;SDS011;41787;53.570;10.032;2023-04-06T08:06:01;8.63;;;4.63;;
40449;SDS011;41787;53.570;10.032;2023-04-06T08:08:27;6.40;;;3.92;;
40449;SDS011;41787;53.570;10.032;2023-04-06T08:10:53;6.40;;;4.55;;
40449;SDS011;41787;53.570;10.032;2023-04-06T08:13:19;11.43;;;4.35;;
40449;SDS011;41787;53.570;10.032;2023-04-06T08:15:46;10.15;;;4.82;;
40449;SDS011;41787;53.570;10.032;2023-04-06T08:18:12;8.05;;;4.20;;
40449;SDS011;41787;53.570;10.032;2023-04-06T08:20:39;7.05;;;4.20;;
40449;SDS011;41787;53.570;10.032;2023-04-06T08:23:05;10.43;;;4.47;;
40449;SDS011;41787;53.570;10.032;2023-04-06T08:25:35;8.63;;;4.28;;
40449;SDS011;41787;53.570;10.032;2023-04-06T08:28:01;6.55;;;4.03;;
40449;SDS011;41787;53.570;10.032;2023-04-06T08:30:27;11.18;;;5.53;;
40449;SDS011;41787;53.570;10.032;2023-04-06T08:32:56;10.02;;;5.43;;
40449;SDS011;41787;53.570;10.032;2023-04-06T08:35:22;9.50;;;4.18;;
40449;SDS011;41787;53.570;10.032;2023-04-06T08:37:47;10.60;;;4.50;;
40449;SDS011;41787;53.570;10.032;2023-04-06T08:40:13;6.03;;;3.70;;
40449;SDS011;41787;53.570;10.032;2023-04-06T08:42:40;10.90;;;4.43;;
40449;SDS011;41787;53.570;10.032;2023-04-06T08:45:07;9.50;;;4.75;;
40449;SDS011;41787;53.570;10.032;2023-04-06T08:47:34;7.63;;;4.57;;
40449;SDS011;41787;53.570;10.032;2023-04-06T08:50:01;9.27;;;4.72;;
40449;SDS011;41787;53.570;10.032;2023-04-06T08:52:28;8.95;;;5.00;;
40449;SDS011;41787;53.570;10.032;2023-04-06T08:54:57;9.00;;;5.40;;
40449;SDS011;41787;53.570;10.032;2023-04-06T08:57:25;7.35;;;4.78;;
40449;SDS011;41787;53.570;10.032;2023-04-06T08:59:52;7.13;;;4.75;;
40449;SDS011;41787;53.570;10.032;2023-04-06T09:02:18;9.63;;;4.28;;
40449;SDS011;41787;53.570;10.032;2023-04-06T09:04:48;8.10;;;4.68;;
40449;SDS011;41787;53.570;10.032;2023-04-06T09:07:15;8.07;;;4.25;;
40449;SDS011;41787;53.570;10.032;2023-04-06T09:09:41;8.57;;;4.07;;
40449;SDS011;41787;53.570;10.032;2023-04-06T09:12:21;7.40;;;4.07;;
40449;SDS011;41787;53.570;10.032;2023-04-06T09:14:47;7.85;;;4.32;;
40449;SDS011;41787;53.570;10.032;2023-04-06T09:17:20;8.05;;;4.38;;
40449;SDS011;41787;53.570;10.032;2023-04-06T09:19:46;8.52;;;3.53;;
40449;SDS011;41787;53.570;10.032;2023-04-06T09:22:12;5.45;;;3.20;;
40449;SDS011;41787;53.570;10.032;2023-04-06T09:24:39;6.43;;;3.17;;
40449;SDS011;41787;53.570;10.032;2023-04-06T09:27:05;4.63;;;3.40;;
40449;SDS011;41787;53.570;10.032;2023-04-06T09:29:31;5.43;;;3.00;;
40449;SDS011;41787;53.570;10.032;2023-04-06T09:32:01;9.13;;;3.60;;
40449;SDS011;41787;53.570;10.032;2023-04-06T09:34:28;6.03;;;3.00;;
40449;SDS011;41787;53.570;10.032;2023-04-06T09:36:54;9.77;;;3.70;;
40449;SDS011;41787;53.570;10.032;2023-04-06T09:39:21;6.65;;;2.95;;
40449;SDS011;41787;53.570;10.032;2023-04-06T09:44:16;8.02;;;3.97;;
40449;SDS011;41787;53.570;10.032;2023-04-06T09:46:43;8.20;;;4.50;;
40449;SDS011;41787;53.570;10.032;2023-04-06T09:49:10;6.45;;;3.45;;
40449;SDS011;41787;53.570;10.032;2023-04-06T09:51:40;7.20;;;3.10;;
40449;SDS011;41787;53.570;10.032;2023-04-06T09:54:06;5.63;;;3.33;;
40449;SDS011;41787;53.570;10.032;2023-04-06T09:56:46;13.73;;;3.38;;
40449;SDS011;41787;53.570;10.032;2023-04-06T09:59:25;7.68;;;3.35;;
40449;SDS011;41787;53.570;10.032;2023-04-06T10:01:55;7.65;;;2.90;;
40449;SDS011;41787;53.570;10.032;2023-04-06T10:06:51;4.10;;;2.40;;
40449;SDS011;41787;53.570;10.032;2023-04-06T10:09:17;6.55;;;2.65;;
40449;SDS011;41787;53.570;10.032;2023-04-06T10:11:44;4.18;;;2.83;;
40449;SDS011;41787;53.570;10.032;2023-04-06T10:14:11;5.05;;;2.47;;
40449;SDS011;41787;53.570;10.032;2023-04-06T10:16:37;8.07;;;3.40;;
40449;SDS011;41787;53.570;10.032;2023-04-06T10:19:10;6.05;;;2.92;;
40449;SDS011;41787;53.570;10.032;2023-04-06T10:21:39;5.72;;;2.78;;
40449;SDS011;41787;53.570;10.032;2023-04-06T10:24:09;4.55;;;2.30;;
40449;SDS011;41787;53.570;10.032;2023-04-06T10:29:04;4.20;;;2.78;;
40449;SDS011;41787;53.570;10.032;2023-04-06T10:31:31;11.77;;;3.38;;
40449;SDS011;41787;53.570;10.032;2023-04-06T10:33:58;4.50;;;3.15;;
40449;SDS011;41787;53.570;10.032;2023-04-06T10:36:25;5.50;;;3.08;;
40449;SDS011;41787;53.570;10.032;2023-04-06T10:39:01;5.70;;;3.47;;
40449;SDS011;41787;53.570;10.032;2023-04-06T10:41:32;8.43;;;3.25;;
40449;SDS011;41787;53.570;10.032;2023-04-06T10:43:58;7.63;;;3.67;;
40449;SDS011;41787;53.570;10.032;2023-04-06T10:46:26;8.50;;;3.67;;
40449;SDS011;41787;53.570;10.032;2023-04-06T10:48:52;6.10;;;3.40;;
40449;SDS011;41787;53.570;10.032;2023-04-06T10:51:18;9.13;;;3.42;;
40449;SDS011;41787;53.570;10.032;2023-04-06T10:53:46;7.75;;;4.10;;
40449;SDS011;41787;53.570;10.032;2023-04-06T10:56:14;6.22;;;3.47;;
40449;SDS011;41787;53.570;10.032;2023-04-06T10:58:45;6.22;;;4.05;;
40449;SDS011;41787;53.570;10.032;2023-04-06T11:01:12;5.15;;;3.97;;
40449;SDS011;41787;53.570;10.032;2023-04-06T11:03:42;5.72;;;3.80;;
40449;SDS011;41787;53.570;10.032;2023-04-06T11:06:08;11.15;;;3.80;;
40449;SDS011;41787;53.570;10.032;2023-04-06T11:08:35;6.55;;;4.03;;
40449;SDS011;41787;53.570;10.032;2023-04-06T11:13:48;12.07;;;4.80;;
40449;SDS011;41787;53.570;10.032;2023-04-06T11:16:16;7.63;;;4.38;;
40449;SDS011;41787;53.570;10.032;2023-04-06T11:21:33;10.07;;;5.18;;
40449;SDS011;41787;53.570;10.032;2023-04-06T11:24:07;11.40;;;5.53;;
40449;SDS011;41787;53.570;10.032;2023-04-06T11:26:39;8.55;;;5.30;;
40449;SDS011;41787;53.570;10.032;2023-04-06T11:29:06;8.30;;;4.60;;
40449;SDS011;41787;53.570;10.032;2023-04-06T11:31:37;7.95;;;5.03;;
40449;SDS011;41787;53.570;10.032;2023-04-06T11:34:09;9.85;;;5.20;;
40449;SDS011;41787;53.570;10.032;2023-04-06T11:36:35;9.75;;;4.53;;
40449;SDS011;41787;53.570;10.032;2023-04-06T11:39:03;9.80;;;5.38;;
40449;SDS011;41787;53.570;10.032;2023-04-06T11:41:29;12.38;;;6.18;;
40449;SDS011;41787;53.570;10.032;2023-04-06T11:43:55;11.05;;;5.32;;
40449;SDS011;41787;53.570;10.032;2023-04-06T11:46:21;12.32;;;5.53;;
40449;SDS011;41787;53.570;10.032;2023-04-06T11:48:47;11.38;;;5.35;;
40449;SDS011;41787;53.570;10.032;2023-04-06T11:51:21;10.93;;;5.40;;
40449;SDS011;41787;53.570;10.032;2023-04-06T11:53:48;8.35;;;4.90;;
40449;SDS011;41787;53.570;10.032;2023-04-06T11:56:24;9.27;;;4.97;;
40449;SDS011;41787;53.570;10.032;2023-04-06T11:58:50;7.20;;;4.95;;
40449;SDS011;41787;53.570;10.032;2023-04-06T12:01:17;7.15;;;5.10;;
40449;SDS011;41787;53.570;10.032;2023-04-06T12:03:43;8.23;;;5.15;;
40449;SDS011;41787;53.570;10.032;2023-04-06T12:06:09;9.25;;;5.05;;
40449;SDS011;41787;53.570;10.032;2023-04-06T12:08:35;8.32;;;4.47;;
40449;SDS011;41787;53.570;10.032;2023-04-06T12:11:01;7.53;;;5.00;;
40449;SDS011;41787;53.570;10.032;2023-04-06T12:13:27;8.45;;;5.07;;
40449;SDS011;41787;53.570;10.032;2023-04-06T12:15:53;7.10;;;4.85;;
40449;SDS011;41787;53.570;10.032;2023-04-06T12:18:19;9.07;;;5.03;;
40449;SDS011;41787;53.570;10.032;2023-04-06T12:20:45;9.07;;;5.32;;
40449;SDS011;41787;53.570;10.032;2023-04-06T12:23:13;9.98;;;4.95;;
40449;SDS011;41787;53.570;10.032;2023-04-06T12:25:39;8.48;;;5.22;;
40449;SDS011;41787;53.570;10.032;2023-04-06T12:28:06;9.55;;;4.85;;
40449;SDS011;41787;53.570;10.032;2023-04-06T12:30:32;7.82;;;4.78;;
40449;SDS011;41787;53.570;10.032;2023-04-06T12:32:58;6.55;;;5.30;;
40449;SDS011;41787;53.570;10.032;2023-04-06T12:35:24;8.32;;;4.93;;
40449;SDS011;41787;53.570;10.032;2023-04-06T12:37:50;8.60;;;5.00;;
40449;SDS011;41787;53.570;10.032;2023-04-06T12:40:16;14.20;;;5.32;;
40449;SDS011;41787;53.570;10.032;2023-04-06T12:42:51;10.60;;;5.13;;
40449;SDS011;41787;53.570;10.032;2023-04-06T12:45:17;8.35;;;5.47;;
40449;SDS011;41787;53.570;10.032;2023-04-06T12:47:43;10.95;;;5.32;;
40449;SDS011;41787;53.570;10.032;2023-04-06T12:50:10;10.18;;;4.90;;
40449;SDS011;41787;53.570;10.032;2023-04-06T12:52:36;9.00;;;5.15;;
40449;SDS011;41787;53.570;10.032;2023-04-06T12:55:02;7.30;;;5.32;;
40449;SDS011;41787;53.570;10.032;2023-04-06T12:57:29;11.05;;;6.07;;
40449;SDS011;41787;53.570;10.032;2023-04-06T12:59:56;11.73;;;5.22;;
40449;SDS011;41787;53.570;10.032;2023-04-06T13:02:22;12.25;;;5.38;;
40449;SDS011;41787;53.570;10.032;2023-04-06T13:04:49;7.35;;;4.70;;
40449;SDS011;41787;53.570;10.032;2023-04-06T13:07:15;9.23;;;5.95;;
40449;SDS011;41787;53.570;10.032;2023-04-06T13:09:41;13.23;;;5.57;;
40449;SDS011;41787;53.570;10.032;2023-04-06T13:12:14;10.60;;;6.00;;
40449;SDS011;41787;53.570;10.032;2023-04-06T13:14:48;11.45;;;5.70;;
40449;SDS011;41787;53.570;10.032;2023-04-06T13:17:17;11.88;;;5.65;;
40449;SDS011;41787;53.570;10.032;2023-04-06T13:19:46;10.80;;;6.07;;
40449;SDS011;41787;53.570;10.032;2023-04-06T13:22:12;9.63;;;5.25;;
40449;SDS011;41787;53.570;10.032;2023-04-06T13:24:38;9.07;;;5.63;;
40449;SDS011;41787;53.570;10.032;2023-04-06T13:27:11;7.45;;;5.30;;
40449;SDS011;41787;53.570;10.032;2023-04-06T13:29:37;12.00;;;6.38;;
40449;SDS011;41787;53.570;10.032;2023-04-06T13:32:03;11.32;;;5.93;;
40449;SDS011;41787;53.570;10.032;2023-04-06T13:34:29;10.05;;;5.53;;
40449;SDS011;41787;53.570;10.032;2023-04-06T13:36:55;10.00;;;5.18;;
40449;SDS011;41787;53.570;10.032;2023-04-06T13:39:21;8.52;;;5.97;;
40449;SDS011;41787;53.570;10.032;2023-04-06T13:41:47;10.88;;;5.55;;
40449;SDS011;41787;53.570;10.032;2023-04-06T13:44:13;10.23;;;6.22;;
40449;SDS011;41787;53.570;10.032;2023-04-06T13:46:41;9.07;;;5.13;;
40449;SDS011;41787;53.570;10.032;2023-04-06T13:49:08;8.88;;;5.85;;
40449;SDS011;41787;53.570;10.032;2023-04-06T13:51:34;9.73;;;5.55;;
40449;SDS011;41787;53.570;10.032;2023-04-06T13:54:00;12.18;;;5.22;;
40449;SDS011;41787;53.570;10.032;2023-04-06T13:56:26;13.07;;;6.68;;
40449;SDS011;41787;53.570;10.032;2023-04-06T13:58:56;11.52;;;5.85;;
40449;SDS011;41787;53.570;10.032;2023-04-06T14:01:22;9.93;;;5.70;;
40449;SDS011;41787;53.570;10.032;2023-04-06T14:03:51;9.82;;;5.53;;
40449;SDS011;41787;53.570;10.032;2023-04-06T14:06:17;11.60;;;6.43;;
40449;SDS011;41787;53.570;10.032;2023-04-06T14:08:43;12.20;;;5.65;;
40449;SDS011;41787;53.570;10.032;2023-04-06T14:11:12;11.10;;;5.38;;
40449;SDS011;41787;53.570;10.032;2023-04-06T14:13:39;8.98;;;5.97;;
40449;SDS011;41787;53.570;10.032;2023-04-06T14:16:05;8.82;;;5.63;;
40449;SDS011;41787;53.570;10.032;2023-04-06T14:18:32;11.55;;;6.65;;
40449;SDS011;41787;53.570;10.032;2023-04-06T14:20:59;9.88;;;6.13;;
40449;SDS011;41787;53.570;10.032;2023-04-06T14:23:26;9.90;;;6.00;;
40449;SDS011;41787;53.570;10.032;2023-04-06T14:26:02;10.15;;;6.20;;
40449;SDS011;41787;53.570;10.032;2023-04-06T14:28:33;8.98;;;6.10;;
40449;SDS011;41787;53.570;10.032;2023-04-06T14:31:00;9.10;;;5.97;;
40449;SDS011;41787;53.570;10.032;2023-04-06T14:33:28;9.95;;;6.38;;
40449;SDS011;41787;53.570;10.032;2023-04-06T14:35:55;8.00;;;6.00;;
40449;SDS011;41787;53.570;10.032;2023-04-06T14:38:21;8.63;;;5.82;;
40449;SDS011;41787;53.570;10.032;2023-04-06T14:40:50;9.07;;;5.65;;